sensor_id;sensor_type;location;lat;lon;timestamp;P1;durP1;ratioP1;P2;durP2;ratioP2
60006;SDS011;45863;50.336;3.536;2022-12-20T00:02:12;9.87;;;4.93;;
60006;SDS011;45863;50.336;3.536;2022-12-20T00:04:37;8.07;;;4.43;;
60006;SDS011;45863;50.336;3.536;2022-12-20T00:07:03;7.82;;;4.43;;
60006;SDS011;45863;50.336;3.536;2022-12-20T00:09:28;11.10;;;4.95;;
60006;SDS011;45863;50.336;3.536;2022-12-20T00:11:53;12.65;;;4.65;;
60006;SDS011;45863;50.336;3.536;2022-12-20T00:14:18;9.93;;;4.20;;
60006;SDS011;45863;50.336;3.536;2022-12-20T00:16:43;12.93;;;5.15;;
60006;SDS011;45863;50.336;3.536;2022-12-20T00:19:09;11.18;;;5.03;;
60006;SDS011;45863;50.336;3.536;2022-12-20T00:21:34;14.77;;;4.78;;
60006;SDS011;45863;50.336;3.536;2022-12-20T00:24:00;8.50;;;4.25;;
60006;SDS011;45863;50.336;3.536;2022-12-20T00:26:27;8.15;;;4.75;;
60006;SDS011;45863;50.336;3.536;2022-12-20T00:28:52;10.27;;;4.20;;
60006;SDS011;45863;50.336;3.536;2022-12-20T00:31:18;9.02;;;4.28;;
60006;SDS011;45863;50.336;3.536;2022-12-20T00:33:45;9.88;;;4.50;;
60006;SDS011;45863;50.336;3.536;2022-12-20T00:36:10;14.73;;;4.22;;
60006;SDS011;45863;50.336;3.536;2022-12-20T00:38:36;13.63;;;4.40;;
60006;SDS011;45863;50.336;3.536;2022-12-20T00:45:57;9.45;;;4.97;;
60006;SDS011;45863;50.336;3.536;2022-12-20T00:48:23;9.45;;;4.82;;
60006;SDS011;45863;50.336;3.536;2022-12-20T00:50:48;8.85;;;4.45;;
60006;SDS011;45863;50.336;3.536;2022-12-20T00:53:14;9.75;;;4.40;;
60006;SDS011;45863;50.336;3.536;2022-12-20T00:55:40;11.60;;;4.45;;
60006;SDS011;45863;50.336;3.536;2022-12-20T00:58:05;7.63;;;4.28;;
60006;SDS011;45863;50.336;3.536;2022-12-20T01:00:30;10.68;;;4.53;;
60006;SDS011;45863;50.336;3.536;2022-12-20T01:02:56;13.73;;;4.83;;
60006;SDS011;45863;50.336;3.536;2022-12-20T01:05:21;8.50;;;3.95;;
60006;SDS011;45863;50.336;3.536;2022-12-20T01:07:46;8.77;;;4.40;;
60006;SDS011;45863;50.336;3.536;2022-12-20T01:10:11;11.40;;;4.33;;
60006;SDS011;45863;50.336;3.536;2022-12-20T01:12:36;10.23;;;4.40;;
60006;SDS011;45863;50.336;3.536;2022-12-20T01:15:02;9.88;;;4.70;;
60006;SDS011;45863;50.336;3.536;2022-12-20T01:17:27;9.48;;;4.50;;
60006;SDS011;45863;50.336;3.536;2022-12-20T01:19:52;8.57;;;3.60;;
60006;SDS011;45863;50.336;3.536;2022-12-20T01:22:18;9.77;;;3.88;;
60006;SDS011;45863;50.336;3.536;2022-12-20T01:24:43;12.38;;;4.60;;
60006;SDS011;45863;50.336;3.536;2022-12-20T01:27:08;8.90;;;4.50;;
60006;SDS011;45863;50.336;3.536;2022-12-20T01:29:33;8.90;;;3.65;;
60006;SDS011;45863;50.336;3.536;2022-12-20T01:31:59;7.60;;;3.67;;
60006;SDS011;45863;50.336;3.536;2022-12-20T01:34:24;9.05;;;4.35;;
60006;SDS011;45863;50.336;3.536;2022-12-20T01:36:49;8.88;;;3.97;;
60006;SDS011;45863;50.336;3.536;2022-12-20T01:39:15;10.98;;;4.22;;
60006;SDS011;45863;50.336;3.536;2022-12-20T01:41:41;9.32;;;4.18;;
60006;SDS011;45863;50.336;3.536;2022-12-20T01:46:41;8.57;;;3.85;;
60006;SDS011;45863;50.336;3.536;2022-12-20T01:49:10;8.50;;;4.18;;
60006;SDS011;45863;50.336;3.536;2022-12-20T01:51:42;6.97;;;2.67;;
60006;SDS011;45863;50.336;3.536;2022-12-20T01:54:14;8.48;;;3.85;;
60006;SDS011;45863;50.336;3.536;2022-12-20T01:56:41;9.20;;;4.68;;
60006;SDS011;45863;50.336;3.536;2022-12-20T01:59:07;7.82;;;3.85;;
60006;SDS011;45863;50.336;3.536;2022-12-20T02:01:32;10.07;;;4.30;;
60006;SDS011;45863;50.336;3.536;2022-12-20T02:03:58;8.13;;;4.32;;
60006;SDS011;45863;50.336;3.536;2022-12-20T02:06:24;9.93;;;4.50;;
60006;SDS011;45863;50.336;3.536;2022-12-20T02:08:50;9.85;;;3.83;;
60006;SDS011;45863;50.336;3.536;2022-12-20T02:16:14;7.00;;;3.63;;
60006;SDS011;45863;50.336;3.536;2022-12-20T02:28:56;10.57;;;4.43;;
60006;SDS011;45863;50.336;3.536;2022-12-20T02:31:28;9.40;;;3.67;;
60006;SDS011;45863;50.336;3.536;2022-12-20T02:33:57;8.45;;;4.00;;
60006;SDS011;45863;50.336;3.536;2022-12-20T02:36:23;9.30;;;3.85;;
60006;SDS011;45863;50.336;3.536;2022-12-20T02:38:49;8.75;;;3.97;;
60006;SDS011;45863;50.336;3.536;2022-12-20T02:41:20;8.07;;;3.85;;
60006;SDS011;45863;50.336;3.536;2022-12-20T02:43:47;8.60;;;3.72;;
60006;SDS011;45863;50.336;3.536;2022-12-20T02:46:31;9.80;;;4.22;;
60006;SDS011;45863;50.336;3.536;2022-12-20T02:48:59;7.75;;;3.88;;
60006;SDS011;45863;50.336;3.536;2022-12-20T02:51:25;8.40;;;3.70;;
60006;SDS011;45863;50.336;3.536;2022-12-20T02:53:52;8.25;;;3.67;;
60006;SDS011;45863;50.336;3.536;2022-12-20T02:56:22;7.88;;;3.65;;
60006;SDS011;45863;50.336;3.536;2022-12-20T02:58:59;7.78;;;3.70;;
60006;SDS011;45863;50.336;3.536;2022-12-20T03:01:33;6.80;;;3.40;;
60006;SDS011;45863;50.336;3.536;2022-12-20T03:04:00;6.93;;;3.85;;
60006;SDS011;45863;50.336;3.536;2022-12-20T03:06:25;6.82;;;3.28;;
60006;SDS011;45863;50.336;3.536;2022-12-20T03:08:51;6.65;;;3.47;;
60006;SDS011;45863;50.336;3.536;2022-12-20T03:11:16;7.57;;;3.10;;
60006;SDS011;45863;50.336;3.536;2022-12-20T03:13:41;8.48;;;3.47;;
60006;SDS011;45863;50.336;3.536;2022-12-20T03:16:06;7.75;;;3.33;;
60006;SDS011;45863;50.336;3.536;2022-12-20T03:18:33;7.65;;;3.90;;
60006;SDS011;45863;50.336;3.536;2022-12-20T03:20:58;10.80;;;3.30;;
60006;SDS011;45863;50.336;3.536;2022-12-20T03:23:23;8.70;;;3.63;;
60006;SDS011;45863;50.336;3.536;2022-12-20T03:25:48;7.33;;;4.20;;
60006;SDS011;45863;50.336;3.536;2022-12-20T03:28:14;8.27;;;3.05;;
60006;SDS011;45863;50.336;3.536;2022-12-20T03:30:39;10.52;;;3.38;;
60006;SDS011;45863;50.336;3.536;2022-12-20T03:33:04;8.55;;;3.22;;
60006;SDS011;45863;50.336;3.536;2022-12-20T03:35:30;9.43;;;3.30;;
60006;SDS011;45863;50.336;3.536;2022-12-20T03:37:55;6.07;;;3.17;;
60006;SDS011;45863;50.336;3.536;2022-12-20T03:40:21;8.25;;;4.00;;
60006;SDS011;45863;50.336;3.536;2022-12-20T03:42:46;9.73;;;3.83;;
60006;SDS011;45863;50.336;3.536;2022-12-20T03:45:11;8.03;;;3.00;;
60006;SDS011;45863;50.336;3.536;2022-12-20T03:47:36;6.78;;;3.00;;
60006;SDS011;45863;50.336;3.536;2022-12-20T03:50:02;9.60;;;3.10;;
60006;SDS011;45863;50.336;3.536;2022-12-20T03:52:27;7.28;;;3.13;;
60006;SDS011;45863;50.336;3.536;2022-12-20T03:54:52;6.00;;;3.10;;
60006;SDS011;45863;50.336;3.536;2022-12-20T03:57:18;6.65;;;2.97;;
60006;SDS011;45863;50.336;3.536;2022-12-20T03:59:43;7.78;;;2.75;;
60006;SDS011;45863;50.336;3.536;2022-12-20T04:02:08;7.93;;;3.30;;
60006;SDS011;45863;50.336;3.536;2022-12-20T04:04:34;8.73;;;3.72;;
60006;SDS011;45863;50.336;3.536;2022-12-20T04:06:59;10.65;;;3.60;;
60006;SDS011;45863;50.336;3.536;2022-12-20T04:09:24;8.27;;;3.90;;
60006;SDS011;45863;50.336;3.536;2022-12-20T04:11:50;6.83;;;3.47;;
60006;SDS011;45863;50.336;3.536;2022-12-20T04:14:15;10.00;;;3.25;;
60006;SDS011;45863;50.336;3.536;2022-12-20T04:16:40;7.70;;;3.00;;
60006;SDS011;45863;50.336;3.536;2022-12-20T04:19:05;9.52;;;3.10;;
60006;SDS011;45863;50.336;3.536;2022-12-20T04:21:31;8.23;;;3.53;;
60006;SDS011;45863;50.336;3.536;2022-12-20T04:23:57;7.82;;;3.35;;
60006;SDS011;45863;50.336;3.536;2022-12-20T04:26:23;12.23;;;3.63;;
60006;SDS011;45863;50.336;3.536;2022-12-20T04:28:49;6.15;;;3.13;;
60006;SDS011;45863;50.336;3.536;2022-12-20T04:31:14;5.68;;;2.90;;
60006;SDS011;45863;50.336;3.536;2022-12-20T04:33:39;8.85;;;2.70;;
60006;SDS011;45863;50.336;3.536;2022-12-20T04:36:05;6.68;;;3.05;;
60006;SDS011;45863;50.336;3.536;2022-12-20T04:38:30;9.82;;;3.00;;
60006;SDS011;45863;50.336;3.536;2022-12-20T04:40:55;7.00;;;2.95;;
60006;SDS011;45863;50.336;3.536;2022-12-20T04:43:21;7.03;;;3.10;;
60006;SDS011;45863;50.336;3.536;2022-12-20T04:45:47;9.23;;;3.08;;
60006;SDS011;45863;50.336;3.536;2022-12-20T04:48:13;7.25;;;2.55;;
60006;SDS011;45863;50.336;3.536;2022-12-20T04:50:38;10.38;;;2.95;;
60006;SDS011;45863;50.336;3.536;2022-12-20T04:53:03;6.38;;;2.70;;
60006;SDS011;45863;50.336;3.536;2022-12-20T04:55:47;6.13;;;3.00;;
60006;SDS011;45863;50.336;3.536;2022-12-20T04:58:12;6.93;;;3.10;;
60006;SDS011;45863;50.336;3.536;2022-12-20T05:00:37;9.57;;;3.40;;
60006;SDS011;45863;50.336;3.536;2022-12-20T05:03:03;8.80;;;2.70;;
60006;SDS011;45863;50.336;3.536;2022-12-20T05:05:28;8.30;;;3.65;;
60006;SDS011;45863;50.336;3.536;2022-12-20T05:07:53;6.60;;;2.58;;
60006;SDS011;45863;50.336;3.536;2022-12-20T05:10:19;8.48;;;3.42;;
60006;SDS011;45863;50.336;3.536;2022-12-20T05:12:44;6.45;;;2.60;;
60006;SDS011;45863;50.336;3.536;2022-12-20T05:15:10;7.72;;;2.97;;
60006;SDS011;45863;50.336;3.536;2022-12-20T05:17:35;9.02;;;2.60;;
60006;SDS011;45863;50.336;3.536;2022-12-20T05:20:00;7.20;;;3.00;;
60006;SDS011;45863;50.336;3.536;2022-12-20T05:22:25;5.90;;;2.60;;
60006;SDS011;45863;50.336;3.536;2022-12-20T05:25:10;6.15;;;2.92;;
60006;SDS011;45863;50.336;3.536;2022-12-20T05:27:54;7.55;;;2.47;;
60006;SDS011;45863;50.336;3.536;2022-12-20T05:30:19;11.70;;;2.50;;
60006;SDS011;45863;50.336;3.536;2022-12-20T05:32:44;6.88;;;2.42;;
60006;SDS011;45863;50.336;3.536;2022-12-20T05:35:09;6.07;;;2.65;;
60006;SDS011;45863;50.336;3.536;2022-12-20T05:37:35;6.03;;;2.22;;
60006;SDS011;45863;50.336;3.536;2022-12-20T05:40:00;5.80;;;2.60;;
60006;SDS011;45863;50.336;3.536;2022-12-20T05:42:25;6.13;;;2.20;;
60006;SDS011;45863;50.336;3.536;2022-12-20T05:44:50;5.33;;;2.37;;
60006;SDS011;45863;50.336;3.536;2022-12-20T05:47:16;6.57;;;2.67;;
60006;SDS011;45863;50.336;3.536;2022-12-20T05:49:41;7.68;;;2.97;;
60006;SDS011;45863;50.336;3.536;2022-12-20T05:52:06;5.32;;;2.10;;
60006;SDS011;45863;50.336;3.536;2022-12-20T05:54:31;7.00;;;2.80;;
60006;SDS011;45863;50.336;3.536;2022-12-20T05:56:57;6.70;;;2.40;;
60006;SDS011;45863;50.336;3.536;2022-12-20T05:59:22;5.70;;;2.13;;
60006;SDS011;45863;50.336;3.536;2022-12-20T06:01:47;7.55;;;2.30;;
60006;SDS011;45863;50.336;3.536;2022-12-20T06:04:12;7.03;;;1.92;;
60006;SDS011;45863;50.336;3.536;2022-12-20T06:06:37;7.55;;;2.10;;
60006;SDS011;45863;50.336;3.536;2022-12-20T06:09:03;6.05;;;2.65;;
60006;SDS011;45863;50.336;3.536;2022-12-20T06:11:28;7.10;;;2.30;;
60006;SDS011;45863;50.336;3.536;2022-12-20T06:13:53;6.13;;;2.20;;
60006;SDS011;45863;50.336;3.536;2022-12-20T06:16:18;5.75;;;2.30;;
60006;SDS011;45863;50.336;3.536;2022-12-20T06:18:45;6.40;;;2.28;;
60006;SDS011;45863;50.336;3.536;2022-12-20T06:21:10;5.05;;;2.33;;
60006;SDS011;45863;50.336;3.536;2022-12-20T06:23:36;8.07;;;2.67;;
60006;SDS011;45863;50.336;3.536;2022-12-20T06:26:01;7.00;;;2.53;;
60006;SDS011;45863;50.336;3.536;2022-12-20T06:28:28;6.03;;;2.40;;
60006;SDS011;45863;50.336;3.536;2022-12-20T06:30:54;6.38;;;2.42;;
60006;SDS011;45863;50.336;3.536;2022-12-20T06:33:19;7.38;;;2.97;;
60006;SDS011;45863;50.336;3.536;2022-12-20T06:35:45;7.93;;;3.10;;
60006;SDS011;45863;50.336;3.536;2022-12-20T06:38:10;9.20;;;3.30;;
60006;SDS011;45863;50.336;3.536;2022-12-20T06:40:36;12.55;;;3.20;;
60006;SDS011;45863;50.336;3.536;2022-12-20T06:43:01;7.20;;;3.08;;
60006;SDS011;45863;50.336;3.536;2022-12-20T06:45:26;8.80;;;3.25;;
60006;SDS011;45863;50.336;3.536;2022-12-20T06:47:51;6.88;;;3.50;;
60006;SDS011;45863;50.336;3.536;2022-12-20T06:50:17;9.00;;;2.85;;
60006;SDS011;45863;50.336;3.536;2022-12-20T06:52:42;6.88;;;2.80;;
60006;SDS011;45863;50.336;3.536;2022-12-20T06:55:07;6.68;;;3.35;;
60006;SDS011;45863;50.336;3.536;2022-12-20T06:57:32;8.70;;;3.13;;
60006;SDS011;45863;50.336;3.536;2022-12-20T06:59:58;10.77;;;3.22;;
60006;SDS011;45863;50.336;3.536;2022-12-20T07:02:23;6.63;;;3.05;;
60006;SDS011;45863;50.336;3.536;2022-12-20T07:04:48;10.40;;;3.60;;
60006;SDS011;45863;50.336;3.536;2022-12-20T07:07:13;14.05;;;3.08;;
60006;SDS011;45863;50.336;3.536;2022-12-20T07:09:39;8.65;;;3.22;;
60006;SDS011;45863;50.336;3.536;2022-12-20T07:12:05;6.53;;;3.22;;
60006;SDS011;45863;50.336;3.536;2022-12-20T07:14:31;10.23;;;3.53;;
60006;SDS011;45863;50.336;3.536;2022-12-20T07:16:56;6.95;;;3.00;;
60006;SDS011;45863;50.336;3.536;2022-12-20T07:19:21;7.78;;;3.40;;
60006;SDS011;45863;50.336;3.536;2022-12-20T07:21:46;8.85;;;3.72;;
60006;SDS011;45863;50.336;3.536;2022-12-20T07:24:12;8.88;;;2.83;;
60006;SDS011;45863;50.336;3.536;2022-12-20T07:26:37;9.20;;;3.40;;
60006;SDS011;45863;50.336;3.536;2022-12-20T07:29:02;10.90;;;4.07;;
60006;SDS011;45863;50.336;3.536;2022-12-20T07:31:27;9.75;;;3.70;;
60006;SDS011;45863;50.336;3.536;2022-12-20T07:33:53;11.38;;;4.20;;
60006;SDS011;45863;50.336;3.536;2022-12-20T07:36:18;15.35;;;5.00;;
60006;SDS011;45863;50.336;3.536;2022-12-20T07:38:43;14.43;;;4.47;;
60006;SDS011;45863;50.336;3.536;2022-12-20T07:41:09;9.32;;;3.65;;
60006;SDS011;45863;50.336;3.536;2022-12-20T07:43:34;8.55;;;3.50;;
60006;SDS011;45863;50.336;3.536;2022-12-20T07:45:59;12.05;;;3.63;;
60006;SDS011;45863;50.336;3.536;2022-12-20T07:48:25;12.77;;;4.10;;
60006;SDS011;45863;50.336;3.536;2022-12-20T07:50:51;9.55;;;3.85;;
60006;SDS011;45863;50.336;3.536;2022-12-20T07:53:16;7.95;;;4.28;;
60006;SDS011;45863;50.336;3.536;2022-12-20T07:55:42;7.68;;;3.85;;
60006;SDS011;45863;50.336;3.536;2022-12-20T07:58:07;11.00;;;3.95;;
60006;SDS011;45863;50.336;3.536;2022-12-20T08:00:33;13.43;;;4.40;;
60006;SDS011;45863;50.336;3.536;2022-12-20T08:03:14;7.78;;;3.40;;
60006;SDS011;45863;50.336;3.536;2022-12-20T08:05:42;8.93;;;3.58;;
60006;SDS011;45863;50.336;3.536;2022-12-20T08:08:09;11.23;;;3.58;;
60006;SDS011;45863;50.336;3.536;2022-12-20T08:10:35;11.38;;;3.80;;
60006;SDS011;45863;50.336;3.536;2022-12-20T08:13:01;9.68;;;4.03;;
60006;SDS011;45863;50.336;3.536;2022-12-20T08:15:27;9.52;;;4.03;;
60006;SDS011;45863;50.336;3.536;2022-12-20T08:17:52;8.07;;;3.72;;
60006;SDS011;45863;50.336;3.536;2022-12-20T08:20:18;8.30;;;3.55;;
60006;SDS011;45863;50.336;3.536;2022-12-20T08:22:43;10.38;;;4.20;;
60006;SDS011;45863;50.336;3.536;2022-12-20T08:25:09;14.93;;;3.70;;
60006;SDS011;45863;50.336;3.536;2022-12-20T08:27:35;11.35;;;4.25;;
60006;SDS011;45863;50.336;3.536;2022-12-20T08:30:01;11.77;;;4.43;;
60006;SDS011;45863;50.336;3.536;2022-12-20T08:32:26;13.27;;;4.25;;
60006;SDS011;45863;50.336;3.536;2022-12-20T08:34:51;16.10;;;4.22;;
60006;SDS011;45863;50.336;3.536;2022-12-20T08:37:17;9.27;;;3.97;;
60006;SDS011;45863;50.336;3.536;2022-12-20T08:39:42;15.05;;;4.40;;
60006;SDS011;45863;50.336;3.536;2022-12-20T08:42:07;10.35;;;4.60;;
60006;SDS011;45863;50.336;3.536;2022-12-20T08:44:33;10.63;;;4.50;;
60006;SDS011;45863;50.336;3.536;2022-12-20T08:46:58;13.10;;;4.70;;
60006;SDS011;45863;50.336;3.536;2022-12-20T08:49:23;11.17;;;4.70;;
60006;SDS011;45863;50.336;3.536;2022-12-20T08:51:48;10.35;;;4.35;;
60006;SDS011;45863;50.336;3.536;2022-12-20T08:54:13;12.70;;;4.10;;
60006;SDS011;45863;50.336;3.536;2022-12-20T08:56:39;11.13;;;4.40;;
60006;SDS011;45863;50.336;3.536;2022-12-20T08:59:04;14.15;;;4.65;;
60006;SDS011;45863;50.336;3.536;2022-12-20T09:01:29;11.60;;;4.55;;
60006;SDS011;45863;50.336;3.536;2022-12-20T09:03:57;11.30;;;4.75;;
60006;SDS011;45863;50.336;3.536;2022-12-20T09:06:22;10.23;;;4.85;;
60006;SDS011;45863;50.336;3.536;2022-12-20T09:08:48;12.50;;;5.00;;
60006;SDS011;45863;50.336;3.536;2022-12-20T09:11:17;13.90;;;4.80;;
60006;SDS011;45863;50.336;3.536;2022-12-20T09:13:43;9.45;;;4.85;;
60006;SDS011;45863;50.336;3.536;2022-12-20T09:16:09;13.98;;;4.70;;
60006;SDS011;45863;50.336;3.536;2022-12-20T09:18:34;12.73;;;5.43;;
60006;SDS011;45863;50.336;3.536;2022-12-20T09:21:00;13.95;;;4.97;;
60006;SDS011;45863;50.336;3.536;2022-12-20T09:23:26;9.55;;;4.50;;
60006;SDS011;45863;50.336;3.536;2022-12-20T09:25:51;12.68;;;4.72;;
60006;SDS011;45863;50.336;3.536;2022-12-20T09:28:16;8.95;;;4.88;;
60006;SDS011;45863;50.336;3.536;2022-12-20T09:30:42;12.65;;;5.03;;
60006;SDS011;45863;50.336;3.536;2022-12-20T09:33:07;11.60;;;4.68;;
60006;SDS011;45863;50.336;3.536;2022-12-20T09:35:32;13.00;;;5.17;;
60006;SDS011;45863;50.336;3.536;2022-12-20T09:37:58;9.32;;;4.63;;
60006;SDS011;45863;50.336;3.536;2022-12-20T09:40:24;15.05;;;5.53;;
60006;SDS011;45863;50.336;3.536;2022-12-20T09:42:51;14.85;;;5.25;;
60006;SDS011;45863;50.336;3.536;2022-12-20T09:45:27;14.82;;;5.25;;
60006;SDS011;45863;50.336;3.536;2022-12-20T09:47:53;13.98;;;5.13;;
60006;SDS011;45863;50.336;3.536;2022-12-20T09:50:19;14.25;;;5.40;;
60006;SDS011;45863;50.336;3.536;2022-12-20T10:01:05;14.52;;;5.43;;
60006;SDS011;45863;50.336;3.536;2022-12-20T10:05:51;13.03;;;4.73;;
60006;SDS011;45863;50.336;3.536;2022-12-20T10:08:23;12.10;;;5.32;;
60006;SDS011;45863;50.336;3.536;2022-12-20T10:16:28;14.73;;;5.38;;
60006;SDS011;45863;50.336;3.536;2022-12-20T10:21:46;12.30;;;5.20;;
60006;SDS011;45863;50.336;3.536;2022-12-20T10:24:15;14.40;;;5.05;;
60006;SDS011;45863;50.336;3.536;2022-12-20T10:26:42;10.82;;;4.63;;
60006;SDS011;45863;50.336;3.536;2022-12-20T10:29:07;12.23;;;4.60;;
60006;SDS011;45863;50.336;3.536;2022-12-20T10:31:33;13.95;;;4.97;;
60006;SDS011;45863;50.336;3.536;2022-12-20T10:33:58;17.95;;;5.43;;
60006;SDS011;45863;50.336;3.536;2022-12-20T10:36:27;11.13;;;4.93;;
60006;SDS011;45863;50.336;3.536;2022-12-20T10:38:53;14.88;;;5.07;;
60006;SDS011;45863;50.336;3.536;2022-12-20T10:41:23;12.60;;;5.15;;
60006;SDS011;45863;50.336;3.536;2022-12-20T10:43:51;14.60;;;4.97;;
60006;SDS011;45863;50.336;3.536;2022-12-20T10:46:16;12.43;;;4.78;;
60006;SDS011;45863;50.336;3.536;2022-12-20T10:48:43;12.57;;;4.90;;
60006;SDS011;45863;50.336;3.536;2022-12-20T10:53:33;9.50;;;4.70;;
60006;SDS011;45863;50.336;3.536;2022-12-20T10:56:09;10.70;;;4.40;;
60006;SDS011;45863;50.336;3.536;2022-12-20T10:58:36;12.00;;;4.75;;
60006;SDS011;45863;50.336;3.536;2022-12-20T11:01:14;14.40;;;5.05;;
60006;SDS011;45863;50.336;3.536;2022-12-20T11:06:15;11.00;;;4.63;;
60006;SDS011;45863;50.336;3.536;2022-12-20T11:08:41;13.48;;;4.95;;
60006;SDS011;45863;50.336;3.536;2022-12-20T11:13:37;10.20;;;4.65;;
60006;SDS011;45863;50.336;3.536;2022-12-20T11:16:03;12.27;;;4.68;;
60006;SDS011;45863;50.336;3.536;2022-12-20T11:21:04;11.97;;;4.83;;
60006;SDS011;45863;50.336;3.536;2022-12-20T11:39:41;14.65;;;4.65;;
60006;SDS011;45863;50.336;3.536;2022-12-20T11:52:51;13.20;;;5.03;;
60006;SDS011;45863;50.336;3.536;2022-12-20T11:55:23;13.32;;;4.75;;
60006;SDS011;45863;50.336;3.536;2022-12-20T12:00:14;13.50;;;5.00;;
60006;SDS011;45863;50.336;3.536;2022-12-20T12:02:46;16.40;;;5.18;;
60006;SDS011;45863;50.336;3.536;2022-12-20T12:05:17;15.52;;;5.60;;
60006;SDS011;45863;50.336;3.536;2022-12-20T12:07:44;14.85;;;4.53;;
60006;SDS011;45863;50.336;3.536;2022-12-20T12:10:16;9.98;;;4.57;;
60006;SDS011;45863;50.336;3.536;2022-12-20T12:12:47;11.02;;;4.70;;
60006;SDS011;45863;50.336;3.536;2022-12-20T12:22:48;14.45;;;4.68;;
60006;SDS011;45863;50.336;3.536;2022-12-20T12:25:16;13.30;;;4.97;;
60006;SDS011;45863;50.336;3.536;2022-12-20T12:27:42;11.07;;;4.85;;
60006;SDS011;45863;50.336;3.536;2022-12-20T12:30:11;15.80;;;5.15;;
60006;SDS011;45863;50.336;3.536;2022-12-20T12:32:45;13.20;;;5.47;;
60006;SDS011;45863;50.336;3.536;2022-12-20T12:40:36;10.50;;;5.72;;
60006;SDS011;45863;50.336;3.536;2022-12-20T12:43:20;15.02;;;6.03;;
60006;SDS011;45863;50.336;3.536;2022-12-20T12:45:49;15.02;;;5.45;;
60006;SDS011;45863;50.336;3.536;2022-12-20T12:50:45;11.60;;;5.28;;
60006;SDS011;45863;50.336;3.536;2022-12-20T12:53:12;12.70;;;4.88;;
60006;SDS011;45863;50.336;3.536;2022-12-20T12:55:49;15.13;;;5.72;;
60006;SDS011;45863;50.336;3.536;2022-12-20T13:00:48;12.32;;;5.47;;
60006;SDS011;45863;50.336;3.536;2022-12-20T13:03:14;16.25;;;6.63;;
60006;SDS011;45863;50.336;3.536;2022-12-20T13:05:41;16.55;;;6.28;;
60006;SDS011;45863;50.336;3.536;2022-12-20T13:08:16;13.98;;;5.75;;
60006;SDS011;45863;50.336;3.536;2022-12-20T13:13:17;11.00;;;5.97;;
60006;SDS011;45863;50.336;3.536;2022-12-20T13:15:45;12.70;;;5.93;;
60006;SDS011;45863;50.336;3.536;2022-12-20T13:20:36;13.10;;;6.10;;
60006;SDS011;45863;50.336;3.536;2022-12-20T13:25:29;19.52;;;7.43;;
60006;SDS011;45863;50.336;3.536;2022-12-20T13:28:35;18.02;;;7.05;;
60006;SDS011;45863;50.336;3.536;2022-12-20T13:30:43;17.15;;;7.05;;
60006;SDS011;45863;50.336;3.536;2022-12-20T13:33:16;20.17;;;7.78;;
60006;SDS011;45863;50.336;3.536;2022-12-20T13:35:55;16.02;;;8.23;;
60006;SDS011;45863;50.336;3.536;2022-12-20T13:41:01;9.77;;;5.40;;
60006;SDS011;45863;50.336;3.536;2022-12-20T13:43:43;15.68;;;7.80;;
60006;SDS011;45863;50.336;3.536;2022-12-20T13:48:45;17.53;;;8.37;;
60006;SDS011;45863;50.336;3.536;2022-12-20T13:51:22;16.90;;;7.78;;
60006;SDS011;45863;50.336;3.536;2022-12-20T13:54:21;15.50;;;8.23;;
60006;SDS011;45863;50.336;3.536;2022-12-20T13:56:49;15.27;;;7.47;;
60006;SDS011;45863;50.336;3.536;2022-12-20T14:01:53;17.70;;;8.13;;
60006;SDS011;45863;50.336;3.536;2022-12-20T14:04:19;16.90;;;7.43;;
60006;SDS011;45863;50.336;3.536;2022-12-20T14:06:57;16.30;;;8.27;;
60006;SDS011;45863;50.336;3.536;2022-12-20T14:09:34;16.98;;;7.90;;
60006;SDS011;45863;50.336;3.536;2022-12-20T14:12:13;16.80;;;7.68;;
60006;SDS011;45863;50.336;3.536;2022-12-20T14:14:42;20.52;;;8.77;;
60006;SDS011;45863;50.336;3.536;2022-12-20T14:19:45;16.08;;;9.80;;
60006;SDS011;45863;50.336;3.536;2022-12-20T14:22:10;17.35;;;9.35;;
60006;SDS011;45863;50.336;3.536;2022-12-20T14:24:37;25.88;;;11.02;;
60006;SDS011;45863;50.336;3.536;2022-12-20T14:27:03;19.63;;;9.95;;
60006;SDS011;45863;50.336;3.536;2022-12-20T14:29:29;20.52;;;9.52;;
60006;SDS011;45863;50.336;3.536;2022-12-20T14:31:54;20.55;;;9.55;;
60006;SDS011;45863;50.336;3.536;2022-12-20T14:34:25;23.50;;;11.00;;
60006;SDS011;45863;50.336;3.536;2022-12-20T14:36:51;22.20;;;9.98;;
60006;SDS011;45863;50.336;3.536;2022-12-20T14:39:26;25.10;;;10.52;;
60006;SDS011;45863;50.336;3.536;2022-12-20T14:44:33;19.60;;;9.32;;
60006;SDS011;45863;50.336;3.536;2022-12-20T14:47:00;20.38;;;10.10;;
60006;SDS011;45863;50.336;3.536;2022-12-20T14:49:29;18.50;;;10.57;;
60006;SDS011;45863;50.336;3.536;2022-12-20T14:54:39;19.30;;;11.00;;
60006;SDS011;45863;50.336;3.536;2022-12-20T14:59:31;23.92;;;11.23;;
60006;SDS011;45863;50.336;3.536;2022-12-20T15:01:56;20.92;;;11.40;;
60006;SDS011;45863;50.336;3.536;2022-12-20T15:06:48;19.52;;;10.10;;
60006;SDS011;45863;50.336;3.536;2022-12-20T15:09:13;21.48;;;9.60;;
60006;SDS011;45863;50.336;3.536;2022-12-20T15:11:38;22.45;;;9.65;;
60006;SDS011;45863;50.336;3.536;2022-12-20T15:14:22;21.02;;;10.38;;
60006;SDS011;45863;50.336;3.536;2022-12-20T15:16:50;18.02;;;9.98;;
60006;SDS011;45863;50.336;3.536;2022-12-20T15:19:16;23.45;;;9.70;;
60006;SDS011;45863;50.336;3.536;2022-12-20T15:21:41;23.45;;;9.65;;
60006;SDS011;45863;50.336;3.536;2022-12-20T15:24:13;22.25;;;10.18;;
60006;SDS011;45863;50.336;3.536;2022-12-20T15:26:39;18.13;;;10.25;;
60006;SDS011;45863;50.336;3.536;2022-12-20T15:29:05;22.45;;;9.85;;
60006;SDS011;45863;50.336;3.536;2022-12-20T15:31:31;17.77;;;9.43;;
60006;SDS011;45863;50.336;3.536;2022-12-20T15:33:58;20.58;;;9.35;;
60006;SDS011;45863;50.336;3.536;2022-12-20T15:36:24;19.10;;;8.90;;
60006;SDS011;45863;50.336;3.536;2022-12-20T15:38:52;22.38;;;10.27;;
60006;SDS011;45863;50.336;3.536;2022-12-20T15:41:25;18.25;;;9.48;;
60006;SDS011;45863;50.336;3.536;2022-12-20T15:43:52;20.25;;;9.88;;
60006;SDS011;45863;50.336;3.536;2022-12-20T15:46:19;17.52;;;10.40;;
60006;SDS011;45863;50.336;3.536;2022-12-20T15:48:44;22.30;;;10.73;;
60006;SDS011;45863;50.336;3.536;2022-12-20T15:51:52;16.98;;;11.07;;
60006;SDS011;45863;50.336;3.536;2022-12-20T15:53:58;20.42;;;10.77;;
60006;SDS011;45863;50.336;3.536;2022-12-20T15:56:24;22.38;;;10.23;;
60006;SDS011;45863;50.336;3.536;2022-12-20T15:58:49;22.17;;;9.95;;
60006;SDS011;45863;50.336;3.536;2022-12-20T16:01:23;22.60;;;11.30;;
60006;SDS011;45863;50.336;3.536;2022-12-20T16:03:49;22.98;;;11.30;;
60006;SDS011;45863;50.336;3.536;2022-12-20T16:06:15;25.52;;;11.48;;
60006;SDS011;45863;50.336;3.536;2022-12-20T16:08:40;21.75;;;11.07;;
60006;SDS011;45863;50.336;3.536;2022-12-20T16:11:06;23.73;;;11.35;;
60006;SDS011;45863;50.336;3.536;2022-12-20T16:13:32;21.35;;;11.70;;
60006;SDS011;45863;50.336;3.536;2022-12-20T16:15:59;30.35;;;11.90;;
60006;SDS011;45863;50.336;3.536;2022-12-20T16:18:24;27.80;;;12.60;;
60006;SDS011;45863;50.336;3.536;2022-12-20T16:20:50;18.80;;;10.85;;
60006;SDS011;45863;50.336;3.536;2022-12-20T16:23:16;26.13;;;11.55;;
60006;SDS011;45863;50.336;3.536;2022-12-20T16:25:42;24.33;;;13.00;;
60006;SDS011;45863;50.336;3.536;2022-12-20T16:28:08;29.00;;;12.65;;
60006;SDS011;45863;50.336;3.536;2022-12-20T16:30:33;29.73;;;12.93;;
60006;SDS011;45863;50.336;3.536;2022-12-20T16:32:58;26.30;;;13.60;;
60006;SDS011;45863;50.336;3.536;2022-12-20T16:35:25;25.75;;;13.10;;
60006;SDS011;45863;50.336;3.536;2022-12-20T16:37:51;23.45;;;11.95;;
60006;SDS011;45863;50.336;3.536;2022-12-20T16:40:16;30.50;;;13.85;;
60006;SDS011;45863;50.336;3.536;2022-12-20T16:42:42;24.10;;;13.98;;
60006;SDS011;45863;50.336;3.536;2022-12-20T16:45:13;24.50;;;13.65;;